Time;durP1;ratioP1;P1;durP2;ratioP2;P2;SDS_P1;SDS_P2;PMS_P1;PMS_P2;Temp;Humidity;BMP_temperature;BMP_pressure;BME280_temperature;BME280_humidity;BME280_pressure;Samples;Min_cycle;Max_cycle;Signal;HPM_P1;HPM_P2
2022/09/15 13:14:13;;;;;;;2.75;0.80;;;;;;;;;;6156529;22;20030;-66
2022/09/15 13:16:42;;;;;;;4.03;1.10;;;;;;;;;;6159066;23;20026;-65
2022/09/15 13:19:12;;;;;;;3.10;0.98;;;;;;;;;;6158887;23;20490;-65
2022/09/15 13:21:40;;;;;;;4.82;0.90;;;;;;;;;;6157457;23;20081;-65
2022/09/15 13:24:30;;;;;;;4.57;0.82;;;;;;;;;;6158138;23;20034;-65
2022/09/15 13:26:56;;;;;;;5.03;0.70;;;;;;;;;;6145129;23;20471;-65
2022/09/15 13:29:27;;;;;;;3.63;0.77;;;;;;;;;;6156916;23;20033;-65
2022/09/15 13:32:00;;;;;;;4.45;0.80;;;;;;;;;;6158134;23;20095;-64
2022/09/15 13:34:33;;;;;;;3.65;0.88;;;;;;;;;;6159166;23;20030;-65
2022/09/15 13:37:28;;;;;;;2.13;0.85;;;;;;;;;;6158020;23;20124;-65
2022/09/15 13:40:33;;;;;;;1.02;0.55;;;;;;;;;;6157988;23;20120;-65
2022/09/15 13:43:12;;;;;;;3.75;1.23;;;;;;;;;;6157430;23;20034;-65
2022/09/15 13:46:11;;;;;;;3.45;0.82;;;;;;;;;;6158716;23;20026;-66
2022/09/15 13:48:56;;;;;;;2.65;0.82;;;;;;;;;;6141563;23;20116;-65
2022/09/15 13:51:30;;;;;;;4.03;0.90;;;;;;;;;;6158029;23;20113;-64
2022/09/15 13:53:58;;;;;;;7.97;1.35;;;;;;;;;;6157937;23;20026;-64
2022/09/15 13:56:30;;;;;;;2.88;0.77;;;;;;;;;;6158862;23;20038;-64
2022/09/15 13:59:01;;;;;;;5.05;0.70;;;;;;;;;;6156831;23;20034;-66
2022/09/15 14:01:37;;;;;;;4.70;1.10;;;;;;;;;;6158600;23;20109;-63
2022/09/15 14:04:10;;;;;;;2.75;0.80;;;;;;;;;;6158651;23;20065;-63
2022/09/15 14:06:39;;;;;;;3.88;1.23;;;;;;;;;;6158947;23;20029;-63
2022/09/15 14:09:08;;;;;;;8.63;0.95;;;;;;;;;;6158949;23;20525;-63
2022/09/15 14:11:35;;;;;;;3.75;1.10;;;;;;;;;;6156948;23;20030;-64
2022/09/15 14:14:05;;;;;;;3.65;0.82;;;;;;;;;;6158831;23;20036;-63
2022/09/15 14:16:36;;;;;;;2.85;0.50;;;;;;;;;;6158406;23;20041;-63
2022/09/15 14:19:19;;;;;;;1.63;0.70;;;;;;;;;;6158638;23;20058;-63
2022/09/15 14:21:48;;;;;;;4.13;0.60;;;;;;;;;;6158105;23;20030;-62
2022/09/15 14:24:19;;;;;;;5.43;0.82;;;;;;;;;;6158411;23;20034;-62
2022/09/15 14:26:46;;;;;;;5.28;0.70;;;;;;;;;;6157442;23;20030;-62
2022/09/15 14:29:16;;;;;;;3.08;1.02;;;;;;;;;;6157224;23;20542;-63
2022/09/15 14:31:42;;;;;;;3.13;0.60;;;;;;;;;;6159029;23;20104;-64
2022/09/15 14:34:17;;;;;;;4.75;0.77;;;;;;;;;;6158848;23;20046;-63
2022/09/15 14:36:44;;;;;;;0.70;0.40;;;;;;;;;;6157532;23;20034;-63
2022/09/15 14:39:10;;;;;;;5.45;1.10;;;;;;;;;;6158391;23;20084;-63
2022/09/15 14:41:37;;;;;;;2.60;0.93;;;;;;;;;;6158685;23;20147;-63
2022/09/15 14:44:22;;;;;;;6.35;0.80;;;;;;;;;;6158598;23;20075;-63
2022/09/15 14:47:30;;;;;;;4.60;0.43;;;;;;;;;;6158629;23;20058;-63
2022/09/15 14:50:15;;;;;;;4.25;1.00;;;;;;;;;;6157654;23;20065;-63
2022/09/15 14:52:42;;;;;;;3.40;0.68;;;;;;;;;;6158494;23;20061;-63
2022/09/15 14:55:13;;;;;;;1.55;0.68;;;;;;;;;;6158294;23;20021;-64
2022/09/15 14:57:43;;;;;;;5.18;1.48;;;;;;;;;;6158931;23;20089;-63
2022/09/15 15:00:17;;;;;;;1.95;1.13;;;;;;;;;;6157791;23;20029;-65
2022/09/15 15:02:50;;;;;;;3.00;0.77;;;;;;;;;;6157744;23;20881;-63
2022/09/15 15:05:27;;;;;;;1.55;0.75;;;;;;;;;;6158126;23;20085;-63
2022/09/15 15:07:54;;;;;;;5.80;0.85;;;;;;;;;;6157564;23;20034;-63
2022/09/15 15:10:23;;;;;;;4.70;0.70;;;;;;;;;;6157418;23;20033;-63
2022/09/15 15:12:51;;;;;;;3.30;1.10;;;;;;;;;;6154940;22;20729;-63
2022/09/15 15:15:17;;;;;;;2.00;1.30;;;;;;;;;;6157588;23;20471;-65
2022/09/15 15:17:47;;;;;;;3.70;0.90;;;;;;;;;;6157266;23;20115;-63
2022/09/15 15:20:16;;;;;;;1.05;0.90;;;;;;;;;;6157451;23;20156;-64
2022/09/15 15:22:43;;;;;;;4.75;1.00;;;;;;;;;;6157505;23;20026;-64
2022/09/15 15:25:19;;;;;;;6.10;1.15;;;;;;;;;;6158599;23;20034;-65
2022/09/15 15:27:55;;;;;;;2.47;0.85;;;;;;;;;;6156299;23;20030;-64
2022/09/15 15:30:30;;;;;;;2.67;0.93;;;;;;;;;;6158087;23;20025;-64
2022/09/15 15:32:57;;;;;;;;;;;;;;;;;;6157995;23;20069;-65
2022/09/15 15:35:23;;;;;;;4.38;0.88;;;;;;;;;;6157068;23;44018;-65
2022/09/15 15:38:01;;;;;;;2.22;0.80;;;;;;;;;;6158319;23;20037;-63
2022/09/15 15:40:28;;;;;;;4.43;0.80;;;;;;;;;;6158134;23;20029;-64
2022/09/15 15:42:56;;;;;;;3.13;0.70;;;;;;;;;;6157446;23;20026;-64
2022/09/15 15:45:27;;;;;;;4.47;0.93;;;;;;;;;;6157217;23;20036;-64
2022/09/15 15:47:53;;;;;;;4.38;1.00;;;;;;;;;;6158138;23;20026;-64
2022/09/15 15:50:21;;;;;;;2.67;0.95;;;;;;;;;;6158653;23;20077;-64
2022/09/15 15:52:48;;;;;;;3.03;0.93;;;;;;;;;;6157070;23;20030;-63
2022/09/15 15:55:18;;;;;;;5.68;0.88;;;;;;;;;;6156591;23;20029;-64
2022/09/15 15:57:49;;;;;;;2.47;0.82;;;;;;;;;;6156354;23;20030;-63
2022/09/15 16:00:20;;;;;;;2.25;0.52;;;;;;;;;;6157875;23;20053;-63
2022/09/15 16:02:47;;;;;;;2.55;0.80;;;;;;;;;;6157151;23;20057;-64
2022/09/15 16:05:14;;;;;;;4.25;0.90;;;;;;;;;;6157700;23;20030;-62
2022/09/15 16:07:41;;;;;;;3.80;0.80;;;;;;;;;;6157801;23;20026;-63
2022/09/15 16:10:13;;;;;;;2.90;1.00;;;;;;;;;;6158237;23;20030;-63
2022/09/15 16:12:39;;;;;;;3.50;0.80;;;;;;;;;;6156815;23;20535;-63
2022/09/15 16:15:10;;;;;;;6.65;1.33;;;;;;;;;;6155545;23;20086;-64
2022/09/15 16:17:36;;;;;;;4.30;0.95;;;;;;;;;;6157307;23;20085;-63
2022/09/15 16:20:07;;;;;;;1.98;0.60;;;;;;;;;;6158470;23;20030;-64
2022/09/15 16:22:34;;;;;;;2.17;0.80;;;;;;;;;;6159020;23;20085;-67
2022/09/15 16:25:00;;;;;;;3.03;0.77;;;;;;;;;;6158118;23;20077;-65
2022/09/15 16:27:27;;;;;;;4.68;1.48;;;;;;;;;;6156973;23;20034;-63
2022/09/15 16:29:53;;;;;;;2.75;0.70;;;;;;;;;;6156350;23;20081;-63
2022/09/15 16:32:21;;;;;;;1.23;0.63;;;;;;;;;;6157874;23;20033;-66
2022/09/15 16:34:52;;;;;;;4.03;1.20;;;;;;;;;;6158561;23;20101;-63
2022/09/15 16:37:19;;;;;;;5.32;0.82;;;;;;;;;;6158238;23;20029;-64
2022/09/15 16:39:45;;;;;;;3.22;0.63;;;;;;;;;;6158221;23;20459;-63
2022/09/15 16:42:11;;;;;;;0.93;0.60;;;;;;;;;;6157870;23;20081;-64
2022/09/15 16:44:37;;;;;;;3.42;1.08;;;;;;;;;;6157449;23;20038;-63
2022/09/15 16:47:05;;;;;;;3.08;0.70;;;;;;;;;;6157698;23;20517;-66
2022/09/15 16:49:36;;;;;;;2.50;0.80;;;;;;;;;;6156031;23;20025;-63
2022/09/15 16:52:02;;;;;;;3.92;0.68;;;;;;;;;;6157374;23;20085;-64
2022/09/15 16:54:30;;;;;;;6.35;1.10;;;;;;;;;;6157702;23;20033;-64
2022/09/15 16:56:57;;;;;;;3.28;1.52;;;;;;;;;;6156116;23;20085;-64
2022/09/15 16:59:25;;;;;;;3.65;0.95;;;;;;;;;;6154508;23;20033;-62
2022/09/15 17:01:52;;;;;;;4.88;0.63;;;;;;;;;;6157353;23;20065;-63
2022/09/15 17:04:18;;;;;;;2.45;0.80;;;;;;;;;;6157868;23;20029;-64
2022/09/15 17:06:45;;;;;;;2.90;0.85;;;;;;;;;;6155236;23;20026;-64
2022/09/15 17:09:11;;;;;;;2.63;0.90;;;;;;;;;;6158458;23;20104;-62
2022/09/15 17:11:37;;;;;;;2.03;0.63;;;;;;;;;;6159008;23;20089;-64
2022/09/15 17:14:04;;;;;;;11.00;1.15;;;;;;;;;;6155794;23;20030;-64
2022/09/15 17:16:30;;;;;;;6.10;1.00;;;;;;;;;;6158313;23;20030;-63
2022/09/15 17:18:56;;;;;;;4.20;1.15;;;;;;;;;;6159065;23;20030;-66
2022/09/15 17:21:23;;;;;;;2.30;0.77;;;;;;;;;;6158883;23;20034;-66
2022/09/15 17:23:49;;;;;;;2.28;1.00;;;;;;;;;;6158206;23;20030;-66
2022/09/15 17:26:23;;;;;;;9.75;0.90;;;;;;;;;;6158767;23;20030;-65
2022/09/15 17:28:56;;;;;;;3.70;0.98;;;;;;;;;;6156452;23;20036;-66
2022/09/15 17:31:23;;;;;;;6.05;1.10;;;;;;;;;;6158675;23;20089;-66
2022/09/15 17:33:50;;;;;;;3.20;0.98;;;;;;;;;;6158596;23;20037;-66
2022/09/15 17:36:17;;;;;;;5.20;1.10;;;;;;;;;;6159076;23;20109;-66
2022/09/15 17:38:44;;;;;;;4.13;0.90;;;;;;;;;;6158654;23;20085;-66
2022/09/15 17:41:14;;;;;;;5.00;1.50;;;;;;;;;;6159159;23;20025;-66
2022/09/15 17:43:40;;;;;;;4.07;1.30;;;;;;;;;;6158151;23;20026;-64
2022/09/15 17:46:07;;;;;;;4.35;1.35;;;;;;;;;;6158229;23;20367;-63
2022/09/15 17:48:36;;;;;;;2.53;0.90;;;;;;;;;;6159082;23;20025;-64
2022/09/15 17:51:02;;;;;;;4.25;0.95;;;;;;;;;;6157729;23;20030;-64
2022/09/15 17:53:30;;;;;;;4.03;1.17;;;;;;;;;;6158110;23;20037;-65
2022/09/15 17:55:58;;;;;;;4.35;0.70;;;;;;;;;;6157123;23;20060;-64
2022/09/15 17:58:25;;;;;;;5.80;1.08;;;;;;;;;;6157000;23;20073;-63
2022/09/15 18:00:52;;;;;;;3.80;0.88;;;;;;;;;;6156160;23;20022;-64
2022/09/15 18:03:18;;;;;;;2.53;0.85;;;;;;;;;;6158142;23;20026;-64
2022/09/15 18:05:44;;;;;;;1.35;0.70;;;;;;;;;;6158265;23;20030;-64
2022/09/15 18:08:11;;;;;;;2.83;0.68;;;;;;;;;;6158564;23;20034;-63
2022/09/15 18:10:37;;;;;;;3.63;1.00;;;;;;;;;;6158644;23;20472;-64
2022/09/15 18:13:04;;;;;;;3.53;1.80;;;;;;;;;;6157917;23;20073;-64
2022/09/15 18:15:32;;;;;;;1.80;0.90;;;;;;;;;;6156849;23;20029;-64
2022/09/15 18:18:07;;;;;;;8.52;0.98;;;;;;;;;;6157930;23;20480;-63
2022/09/15 18:20:33;;;;;;;3.92;1.48;;;;;;;;;;6155900;23;20061;-64
2022/09/15 18:23:00;;;;;;;3.35;0.82;;;;;;;;;;6157833;23;20111;-66
2022/09/15 18:25:28;;;;;;;2.72;0.43;;;;;;;;;;6157045;23;20038;-64
2022/09/15 18:28:01;;;;;;;0.88;0.38;;;;;;;;;;6157978;23;20089;-63
2022/09/15 18:30:33;;;;;;;3.30;1.27;;;;;;;;;;6155331;23;20113;-63
2022/09/15 18:32:59;;;;;;;3.25;0.50;;;;;;;;;;6158572;23;20030;-64
2022/09/15 18:35:25;;;;;;;3.47;0.70;;;;;;;;;;6158742;23;20447;-63
2022/09/15 18:37:56;;;;;;;0.32;0.32;;;;;;;;;;6158478;23;20831;-66
2022/09/15 18:40:23;;;;;;;2.88;0.50;;;;;;;;;;6158496;23;20559;-62
2022/09/15 18:42:49;;;;;;;2.85;0.70;;;;;;;;;;6157553;23;20029;-63
2022/09/15 18:45:16;;;;;;;2.00;0.77;;;;;;;;;;6157321;23;20077;-63
2022/09/15 18:47:45;;;;;;;2.10;0.60;;;;;;;;;;6158490;23;20057;-64
2022/09/15 18:50:12;;;;;;;2.10;0.75;;;;;;;;;;6158769;23;20030;-63
2022/09/15 18:52:40;;;;;;;0.70;0.40;;;;;;;;;;6159085;23;20026;-64
2022/09/15 18:55:10;;;;;;;2.67;0.65;;;;;;;;;;6158305;23;20348;-63
2022/09/15 18:57:36;;;;;;;2.83;0.55;;;;;;;;;;6158255;23;20030;-64
2022/09/15 19:00:06;;;;;;;4.03;0.60;;;;;;;;;;6157392;23;20076;-64
2022/09/15 19:02:32;;;;;;;2.70;0.60;;;;;;;;;;6158057;23;20030;-63
2022/09/15 19:04:59;;;;;;;1.08;0.40;;;;;;;;;;6158114;23;20041;-63
2022/09/15 19:07:25;;;;;;;2.90;0.88;;;;;;;;;;6158393;23;20085;-63
2022/09/15 19:09:55;;;;;;;2.00;0.75;;;;;;;;;;6157523;23;20624;-64
2022/09/15 19:12:22;;;;;;;2.67;0.80;;;;;;;;;;6158728;23;20514;-64
2022/09/15 19:14:48;;;;;;;2.95;0.70;;;;;;;;;;6158629;23;20030;-66
2022/09/15 19:17:14;;;;;;;7.90;0.90;;;;;;;;;;6158860;23;20030;-63
2022/09/15 19:19:41;;;;;;;6.22;1.05;;;;;;;;;;6158209;23;20515;-64
2022/09/15 19:22:08;;;;;;;3.92;0.77;;;;;;;;;;6158224;23;20527;-64
2022/09/15 19:24:35;;;;;;;1.00;0.60;;;;;;;;;;6157865;23;20086;-63
2022/09/15 19:27:04;;;;;;;1.25;0.50;;;;;;;;;;6158100;23;20037;-63
2022/09/15 19:29:33;;;;;;;3.08;0.70;;;;;;;;;;6155743;23;20029;-64
2022/09/15 19:32:00;;;;;;;0.60;0.50;;;;;;;;;;6157812;23;20426;-63
2022/09/15 19:34:27;;;;;;;1.67;0.50;;;;;;;;;;6157553;23;20030;-63
2022/09/15 19:36:53;;;;;;;2.70;0.60;;;;;;;;;;6158397;23;20518;-67
2022/09/15 19:39:19;;;;;;;2.58;0.77;;;;;;;;;;6158004;23;20525;-63
2022/09/15 19:41:46;;;;;;;2.67;0.88;;;;;;;;;;6156728;23;20522;-63
2022/09/15 19:44:12;;;;;;;6.53;1.08;;;;;;;;;;6157994;23;20037;-65
2022/09/15 19:46:38;;;;;;;2.65;0.82;;;;;;;;;;6158010;23;20086;-65
2022/09/15 19:49:05;;;;;;;1.58;0.55;;;;;;;;;;6157352;23;20026;-66
2022/09/15 19:51:31;;;;;;;3.45;0.70;;;;;;;;;;6158135;23;20034;-65
2022/09/15 19:53:58;;;;;;;2.38;1.35;;;;;;;;;;6157327;23;20030;-65
2022/09/15 19:56:25;;;;;;;5.13;0.70;;;;;;;;;;6158407;23;20053;-65
2022/09/15 19:58:54;;;;;;;4.82;1.00;;;;;;;;;;6156180;23;20026;-65
2022/09/15 20:01:23;;;;;;;5.45;1.00;;;;;;;;;;6157638;23;20057;-67
2022/09/15 20:03:51;;;;;;;5.25;1.10;;;;;;;;;;6157368;23;20097;-71
2022/09/15 20:06:17;;;;;;;5.40;1.20;;;;;;;;;;6156390;23;20077;-72
2022/09/15 20:08:45;;;;;;;5.63;1.13;;;;;;;;;;6159070;23;20030;-73
2022/09/15 20:11:12;;;;;;;3.47;1.08;;;;;;;;;;6158297;23;20030;-73
2022/09/15 20:13:42;;;;;;;4.35;1.33;;;;;;;;;;6157696;23;20029;-71
2022/09/15 20:16:16;;;;;;;11.63;1.42;;;;;;;;;;6157909;23;20058;-71
2022/09/15 20:18:47;;;;;;;2.10;0.70;;;;;;;;;;6157288;23;20041;-72
2022/09/15 20:21:14;;;;;;;3.42;1.05;;;;;;;;;;6158619;23;20088;-71
2022/09/15 20:23:58;;;;;;;6.72;3.63;;;;;;;;;;6157726;23;20557;-71
2022/09/15 20:26:24;;;;;;;6.47;1.77;;;;;;;;;;6157927;23;20034;-71
2022/09/15 20:28:52;;;;;;;19.35;2.60;;;;;;;;;;6156299;23;20037;-71
2022/09/15 20:31:20;;;;;;;4.43;1.13;;;;;;;;;;6156975;23;20495;-72
2022/09/15 20:33:47;;;;;;;3.38;1.23;;;;;;;;;;6157639;23;20502;-71
2022/09/15 20:36:18;;;;;;;2.42;1.30;;;;;;;;;;6157384;23;20025;-71
2022/09/15 20:38:45;;;;;;;2.60;1.13;;;;;;;;;;6155199;23;20085;-71
2022/09/15 20:41:12;;;;;;;8.88;1.63;;;;;;;;;;6161100;23;20026;-71
2022/09/15 20:43:39;;;;;;;4.97;1.17;;;;;;;;;;6156892;23;20030;-71
2022/09/15 20:46:06;;;;;;;3.72;1.30;;;;;;;;;;6157544;23;20036;-71
2022/09/15 20:48:35;;;;;;;3.17;1.05;;;;;;;;;;6160028;23;20026;-72
2022/09/15 20:51:04;;;;;;;3.38;0.95;;;;;;;;;;6160741;23;20037;-72
2022/09/15 20:53:31;;;;;;;2.33;0.82;;;;;;;;;;6160611;23;20026;-71
2022/09/15 20:55:57;;;;;;;6.43;1.20;;;;;;;;;;6157945;23;20030;-72
2022/09/15 20:58:24;;;;;;;3.28;0.90;;;;;;;;;;6155807;23;20033;-71
2022/09/15 21:00:51;;;;;;;2.42;1.02;;;;;;;;;;6159416;23;20446;-71
2022/09/15 21:03:18;;;;;;;3.80;1.80;;;;;;;;;;6161039;23;20034;-71
2022/09/15 21:05:44;;;;;;;2.70;1.13;;;;;;;;;;6159757;23;20030;-71
2022/09/15 21:08:11;;;;;;;5.50;1.20;;;;;;;;;;6159761;23;20029;-71
2022/09/15 21:10:42;;;;;;;3.00;0.90;;;;;;;;;;6160433;23;20030;-72
2022/09/15 21:13:08;;;;;;;3.40;1.13;;;;;;;;;;6159800;23;20423;-73
2022/09/15 21:15:34;;;;;;;3.05;1.15;;;;;;;;;;6160666;23;20467;-72
2022/09/15 21:18:01;;;;;;;2.53;0.80;;;;;;;;;;6160726;23;20131;-72
2022/09/15 21:20:27;;;;;;;2.45;0.88;;;;;;;;;;6160664;23;20034;-72
2022/09/15 21:22:54;;;;;;;3.15;0.85;;;;;;;;;;6160643;23;20085;-71
2022/09/15 21:25:21;;;;;;;2.83;1.17;;;;;;;;;;6161047;23;20084;-72
2022/09/15 21:27:47;;;;;;;8.13;2.10;;;;;;;;;;6158762;23;20034;-72
2022/09/15 21:30:14;;;;;;;3.85;1.52;;;;;;;;;;6160364;23;20089;-72
2022/09/15 21:32:40;;;;;;;3.33;1.00;;;;;;;;;;6160297;23;20093;-72
2022/09/15 21:35:06;;;;;;;6.13;1.10;;;;;;;;;;6159886;23;20058;-73
2022/09/15 21:37:34;;;;;;;6.35;1.50;;;;;;;;;;6158905;23;20934;-72
2022/09/15 21:40:00;;;;;;;3.70;1.08;;;;;;;;;;6159997;23;20026;-72
2022/09/15 21:42:27;;;;;;;2.92;1.05;;;;;;;;;;6160486;23;20036;-71
2022/09/15 21:44:54;;;;;;;3.13;0.90;;;;;;;;;;6158122;23;20534;-71
2022/09/15 21:47:20;;;;;;;3.47;1.10;;;;;;;;;;6160126;23;20026;-71
2022/09/15 21:49:47;;;;;;;3.58;1.13;;;;;;;;;;6159782;23;20476;-72
2022/09/15 21:52:13;;;;;;;4.75;1.00;;;;;;;;;;6158552;23;20029;-72
2022/09/15 21:54:40;;;;;;;6.65;1.42;;;;;;;;;;6158219;23;20026;-72
2022/09/15 21:57:06;;;;;;;2.83;0.98;;;;;;;;;;6158003;23;20034;-71
2022/09/15 21:59:32;;;;;;;4.90;1.40;;;;;;;;;;6156284;23;20030;-72
2022/09/15 22:01:58;;;;;;;4.30;1.20;;;;;;;;;;6156761;23;20026;-72
2022/09/15 22:04:25;;;;;;;4.70;1.13;;;;;;;;;;6157638;23;20044;-72
2022/09/15 22:06:52;;;;;;;3.13;0.95;;;;;;;;;;6157462;23;20404;-72
2022/09/15 22:09:20;;;;;;;3.72;1.20;;;;;;;;;;6158141;23;20499;-72
2022/09/15 22:11:46;;;;;;;2.80;0.90;;;;;;;;;;6158006;23;20026;-72
2022/09/15 22:14:13;;;;;;;7.50;1.40;;;;;;;;;;6157887;23;20068;-72
2022/09/15 22:16:40;;;;;;;5.00;1.30;;;;;;;;;;6157763;23;20034;-72
2022/09/15 22:19:08;;;;;;;6.20;1.40;;;;;;;;;;6158586;23;20077;-72
2022/09/15 22:21:35;;;;;;;2.42;1.02;;;;;;;;;;6157879;23;20810;-71
2022/09/15 22:24:03;;;;;;;2.33;1.30;;;;;;;;;;6158158;23;20034;-71
2022/09/15 22:26:31;;;;;;;9.68;1.48;;;;;;;;;;6156560;23;20026;-71
2022/09/15 22:28:59;;;;;;;4.25;2.30;;;;;;;;;;6153745;23;20037;-72
2022/09/15 22:31:26;;;;;;;2.70;1.05;;;;;;;;;;6158976;23;20397;-72
2022/09/15 22:33:52;;;;;;;2.17;0.95;;;;;;;;;;6156606;23;20030;-72
2022/09/15 22:36:25;;;;;;;2.85;1.00;;;;;;;;;;6157726;23;20030;-71
2022/09/15 22:38:55;;;;;;;4.38;1.20;;;;;;;;;;6157997;23;20102;-71
2022/09/15 22:41:24;;;;;;;6.60;1.52;;;;;;;;;;6157956;23;20036;-72
2022/09/15 22:43:50;;;;;;;2.53;1.15;;;;;;;;;;6157455;23;20037;-71
2022/09/15 22:46:17;;;;;;;3.85;1.23;;;;;;;;;;6158294;23;20026;-71
2022/09/15 22:48:44;;;;;;;3.17;0.70;;;;;;;;;;6156793;23;20026;-71
2022/09/15 22:51:10;;;;;;;9.07;1.83;;;;;;;;;;6157964;23;20034;-71
2022/09/15 22:53:38;;;;;;;1.50;0.90;;;;;;;;;;6157859;23;20026;-71
2022/09/15 22:56:09;;;;;;;2.97;1.15;;;;;;;;;;6157934;23;20117;-71
2022/09/15 22:58:35;;;;;;;4.30;1.20;;;;;;;;;;6157664;23;20033;-72
2022/09/15 23:01:06;;;;;;;4.13;1.10;;;;;;;;;;6158545;23;20029;-71
2022/09/15 23:03:32;;;;;;;3.13;1.25;;;;;;;;;;6155508;23;20085;-72
2022/09/15 23:05:59;;;;;;;3.78;1.27;;;;;;;;;;6157756;23;20506;-72
2022/09/15 23:08:25;;;;;;;4.75;0.90;;;;;;;;;;6158214;23;20104;-71
2022/09/15 23:10:52;;;;;;;4.65;1.23;;;;;;;;;;6157655;23;20482;-72
2022/09/15 23:13:18;;;;;;;2.78;0.88;;;;;;;;;;6157231;23;20037;-72
2022/09/15 23:15:44;;;;;;;5.75;1.33;;;;;;;;;;6154819;23;20038;-72
2022/09/15 23:18:11;;;;;;;2.88;0.90;;;;;;;;;;6156591;23;20026;-72
2022/09/15 23:20:38;;;;;;;6.28;1.05;;;;;;;;;;6157819;23;20077;-70
2022/09/15 23:23:05;;;;;;;4.38;0.95;;;;;;;;;;6158048;23;20034;-71
2022/09/15 23:25:31;;;;;;;3.50;1.08;;;;;;;;;;6157945;23;20033;-71
2022/09/15 23:27:57;;;;;;;2.38;1.05;;;;;;;;;;6151758;23;20084;-70
2022/09/15 23:30:26;;;;;;;5.78;1.30;;;;;;;;;;6157971;23;20138;-69
2022/09/15 23:32:53;;;;;;;2.47;0.93;;;;;;;;;;6157667;23;20026;-70
2022/09/15 23:35:19;;;;;;;1.98;0.85;;;;;;;;;;6159468;23;20037;-70
2022/09/15 23:37:45;;;;;;;4.97;0.80;;;;;;;;;;6157246;23;20030;-69
2022/09/15 23:40:11;;;;;;;5.00;1.33;;;;;;;;;;6157282;23;20025;-70
2022/09/15 23:42:38;;;;;;;8.70;1.55;;;;;;;;;;6156967;23;20088;-71
2022/09/15 23:45:04;;;;;;;7.80;1.25;;;;;;;;;;6157981;23;20030;-70
2022/09/15 23:47:33;;;;;;;3.95;1.00;;;;;;;;;;6158115;23;20026;-70
2022/09/15 23:50:00;;;;;;;2.33;0.90;;;;;;;;;;6157316;23;20040;-69
2022/09/15 23:52:26;;;;;;;5.70;1.33;;;;;;;;;;6157763;23;20037;-69
2022/09/15 23:54:52;;;;;;;3.15;1.20;;;;;;;;;;6157853;23;20026;-70
2022/09/15 23:57:18;;;;;;;4.90;1.20;;;;;;;;;;6157456;23;20495;-69
2022/09/15 23:59:44;;;;;;;5.75;1.10;;;;;;;;;;6156656;23;20072;-70
